createdAt,value
2022-11-06T00:01:46.658Z,4.60
2022-11-06T00:04:13.714Z,4.60
2022-11-06T00:06:49.584Z,4.60
2022-11-06T00:09:20.444Z,4.50
2022-11-06T00:11:49.223Z,4.60
2022-11-06T00:14:17.536Z,4.60
2022-11-06T00:16:47.067Z,4.70
2022-11-06T00:19:14.815Z,4.70
2022-11-06T00:21:42.072Z,4.70
2022-11-06T00:24:10.781Z,4.80
2022-11-06T00:26:38.051Z,4.80
2022-11-06T00:29:05.844Z,4.80
2022-11-06T00:31:37.490Z,4.80
2022-11-06T00:34:07.729Z,4.90
2022-11-06T00:36:35.506Z,4.80
2022-11-06T00:39:02.667Z,4.70
2022-11-06T00:41:29.875Z,4.60
2022-11-06T00:43:59.098Z,4.70
2022-11-06T00:46:27.073Z,4.60
2022-11-06T00:48:54.927Z,4.70
2022-11-06T00:51:27.468Z,4.70
2022-11-06T00:53:59.492Z,4.80
2022-11-06T00:56:26.875Z,4.80
2022-11-06T00:58:54.603Z,4.70
2022-11-06T01:01:30.987Z,4.80
2022-11-06T01:04:10.909Z,4.80
2022-11-06T01:06:41.196Z,4.70
2022-11-06T01:09:09.755Z,4.80
2022-11-06T01:12:06.948Z,4.80
2022-11-06T01:14:27.366Z,4.80
2022-11-06T01:16:54.472Z,4.70
2022-11-06T01:19:22.535Z,4.80
2022-11-06T01:21:55.609Z,4.80
2022-11-06T01:24:26.153Z,4.80
2022-11-06T01:27:24.299Z,4.80
2022-11-06T01:29:40.745Z,4.80
2022-11-06T01:32:07.875Z,4.70
2022-11-06T01:34:35.073Z,4.80
2022-11-06T01:37:02.230Z,4.80
2022-11-06T01:39:29.277Z,4.90
2022-11-06T01:41:56.558Z,4.90
2022-11-06T01:45:11.167Z,4.90
2022-11-06T01:47:38.275Z,4.90
2022-11-06T01:50:08.873Z,4.90
2022-11-06T01:52:36.875Z,5.10
2022-11-06T01:55:17.703Z,5.00
2022-11-06T01:57:46.218Z,4.90
2022-11-06T02:00:14.067Z,5.00
2022-11-06T02:02:41.586Z,5.10
2022-11-06T02:05:09.289Z,5.00
2022-11-06T02:07:36.804Z,5.00
2022-11-06T02:10:04.477Z,5.00
2022-11-06T02:13:17.081Z,5.10
2022-11-06T02:16:16.331Z,5.20
2022-11-06T02:19:32.720Z,5.20
2022-11-06T02:22:45.323Z,5.10
2022-11-06T02:25:49.882Z,5.10
2022-11-06T02:28:36.326Z,5.00
2022-11-06T02:31:10.467Z,5.00
2022-11-06T02:33:50.181Z,5.00
2022-11-06T02:36:22.687Z,5.00
2022-11-06T02:38:56.247Z,4.90
2022-11-06T02:41:30.019Z,4.90
2022-11-06T02:43:58.334Z,4.80
2022-11-06T02:46:34.469Z,4.80
2022-11-06T02:49:30.962Z,4.90
2022-11-06T02:52:03.510Z,4.90
2022-11-06T02:54:34.491Z,5.00
2022-11-06T02:57:07.750Z,5.10
2022-11-06T02:59:51.828Z,5.10
2022-11-06T03:02:25.187Z,5.00
2022-11-06T03:05:00.576Z,5.00
2022-11-06T03:08:03.694Z,5.00
2022-11-06T03:10:59.837Z,5.10
2022-11-06T03:14:08.602Z,5.20
2022-11-06T03:17:34.217Z,5.10
2022-11-06T03:20:24.903Z,5.10
2022-11-06T03:23:16.190Z,5.20
2022-11-06T03:25:52.410Z,5.10
2022-11-06T03:28:39.145Z,5.10
2022-11-06T03:31:12.399Z,5.10
2022-11-06T03:33:51.974Z,5.10
2022-11-06T03:36:32.542Z,5.20
2022-11-06T03:39:03.269Z,5.20
2022-11-06T03:41:44.179Z,5.20
2022-11-06T03:44:14.698Z,5.20
2022-11-06T03:46:46.666Z,5.20
2022-11-06T03:49:18.773Z,5.20
2022-11-06T03:51:57.482Z,5.10
2022-11-06T03:54:29.752Z,5.10
2022-11-06T03:57:16.517Z,5.20
2022-11-06T03:59:50.508Z,5.10
2022-11-06T04:02:20.989Z,5.10
2022-11-06T04:04:58.305Z,5.20
2022-11-06T04:07:30.973Z,5.20
2022-11-06T04:10:20.532Z,5.10
2022-11-06T04:13:08.077Z,5.20
2022-11-06T04:15:41.291Z,5.20
2022-11-06T04:18:17.589Z,5.20
2022-11-06T04:21:27.795Z,5.10
2022-11-06T04:24:59.595Z,5.10
2022-11-06T04:28:27.530Z,5.20
2022-11-06T04:31:23.080Z,5.30
2022-11-06T04:34:21.613Z,5.20
2022-11-06T04:37:05.111Z,5.20
2022-11-06T04:40:09.430Z,5.20
2022-11-06T04:42:59.243Z,5.30
2022-11-06T04:45:36.365Z,5.30
2022-11-06T04:48:05.626Z,5.30
2022-11-06T04:50:40.139Z,5.40
2022-11-06T04:53:11.954Z,5.40
2022-11-06T04:55:52.785Z,5.40
2022-11-06T04:58:19.903Z,5.40
2022-11-06T05:00:49.905Z,5.30
2022-11-06T05:03:17.710Z,5.40
2022-11-06T05:05:44.943Z,5.50
2022-11-06T05:08:17.103Z,5.40
2022-11-06T05:10:44.696Z,5.40
2022-11-06T05:13:12.784Z,5.50
2022-11-06T05:15:39.772Z,5.40
2022-11-06T05:18:07.241Z,5.40
2022-11-06T05:20:34.315Z,5.40
2022-11-06T05:23:01.403Z,5.40
2022-11-06T05:25:33.717Z,5.40
2022-11-06T05:28:02.301Z,5.40
2022-11-06T05:30:29.357Z,5.50
2022-11-06T05:32:56.351Z,5.50
2022-11-06T05:35:23.403Z,5.50
2022-11-06T05:37:50.514Z,5.40
2022-11-06T05:40:17.702Z,5.40
2022-11-06T05:42:45.061Z,5.40
2022-11-06T05:45:12.570Z,5.40
2022-11-06T05:47:42.508Z,5.40
2022-11-06T05:50:10.626Z,5.40
2022-11-06T05:52:38.526Z,5.50
2022-11-06T05:55:11.602Z,5.50
2022-11-06T05:57:40.410Z,5.50
2022-11-06T06:00:08.661Z,5.60
2022-11-06T06:02:40.230Z,5.60
2022-11-06T06:05:08.463Z,5.50
2022-11-06T06:07:35.746Z,5.40
2022-11-06T06:10:03.312Z,5.50
2022-11-06T06:12:30.440Z,5.60
2022-11-06T06:14:57.663Z,5.70
2022-11-06T06:17:24.752Z,5.60
2022-11-06T06:19:51.852Z,5.70
2022-11-06T06:22:18.870Z,5.60
2022-11-06T06:24:46.078Z,5.60
2022-11-06T06:27:13.237Z,5.70
2022-11-06T06:29:40.291Z,5.80
2022-11-06T06:32:07.271Z,5.80
2022-11-06T06:34:34.339Z,5.80
2022-11-06T06:37:01.346Z,5.80
2022-11-06T06:39:28.440Z,5.70
2022-11-06T06:41:55.492Z,5.80
2022-11-06T06:44:22.609Z,5.80
2022-11-06T06:46:49.660Z,5.80
2022-11-06T06:49:16.715Z,5.80
2022-11-06T06:51:43.757Z,5.80
2022-11-06T06:54:10.744Z,5.80
2022-11-06T06:56:37.747Z,5.80
2022-11-06T06:59:04.810Z,5.90
2022-11-06T07:01:31.975Z,5.80
2022-11-06T07:04:03.925Z,5.80
2022-11-06T07:06:31.489Z,5.90
2022-11-06T07:08:58.518Z,5.80
2022-11-06T07:11:25.652Z,5.80
2022-11-06T07:13:52.699Z,5.80
2022-11-06T07:16:21.382Z,5.80
2022-11-06T07:18:48.506Z,5.60
2022-11-06T07:21:15.487Z,5.60
2022-11-06T07:23:42.506Z,5.60
2022-11-06T07:26:09.721Z,5.40
2022-11-06T07:28:37.031Z,5.40
2022-11-06T07:31:06.782Z,5.50
2022-11-06T07:33:34.988Z,5.50
2022-11-06T07:36:10.511Z,5.50
2022-11-06T07:38:39.003Z,5.70
2022-11-06T07:41:08.677Z,5.70
2022-11-06T07:43:36.114Z,5.60
2022-11-06T07:46:05.489Z,5.70
2022-11-06T07:48:33.660Z,5.60
2022-11-06T07:51:06.202Z,5.70
2022-11-06T07:53:33.417Z,5.60
2022-11-06T07:56:00.491Z,5.50
2022-11-06T07:58:27.824Z,5.70
2022-11-06T08:00:57.880Z,5.70
2022-11-06T08:03:25.910Z,5.70
2022-11-06T08:05:53.044Z,5.40
2022-11-06T08:08:20.805Z,5.40
2022-11-06T08:10:47.872Z,5.40
2022-11-06T08:13:17.484Z,5.60
2022-11-06T08:15:45.109Z,5.70
2022-11-06T08:18:12.849Z,5.80
2022-11-06T08:20:40.533Z,5.90
2022-11-06T08:23:11.462Z,6.10
2022-11-06T08:25:38.911Z,6.20
2022-11-06T08:28:06.252Z,6.10
2022-11-06T08:30:33.352Z,6.00
2022-11-06T08:33:02.916Z,6.00
2022-11-06T08:35:30.181Z,5.90
2022-11-06T08:37:57.347Z,5.80
2022-11-06T08:40:29.595Z,6.00
2022-11-06T08:43:05.535Z,6.00
2022-11-06T08:45:32.989Z,5.90
2022-11-06T08:48:04.142Z,5.90
2022-11-06T08:50:32.327Z,6.00
2022-11-06T08:53:01.157Z,6.00
2022-11-06T08:55:28.132Z,6.00
2022-11-06T08:57:55.718Z,6.10
2022-11-06T09:00:22.865Z,6.10
2022-11-06T09:02:50.159Z,6.30
2022-11-06T09:05:17.529Z,6.30
2022-11-06T09:07:44.512Z,6.10
2022-11-06T09:10:11.509Z,6.10
2022-11-06T09:12:38.578Z,6.30
2022-11-06T09:15:06.304Z,6.40
2022-11-06T09:17:33.507Z,6.20
2022-11-06T09:20:00.545Z,6.40
2022-11-06T09:22:28.733Z,6.50
2022-11-06T09:25:03.597Z,6.30
2022-11-06T09:27:31.598Z,6.30
2022-11-06T09:29:58.600Z,6.30
2022-11-06T09:32:25.688Z,6.40
2022-11-06T09:34:52.807Z,6.40
2022-11-06T09:37:19.868Z,6.40
2022-11-06T09:39:46.925Z,6.40
2022-11-06T09:42:52.405Z,6.40
2022-11-06T09:45:26.805Z,6.50
2022-11-06T09:48:30.109Z,6.40
2022-11-06T09:51:52.374Z,6.50
2022-11-06T09:54:28.374Z,6.50
2022-11-06T09:57:41.685Z,6.60
2022-11-06T10:00:16.164Z,6.70
2022-11-06T10:02:55.912Z,6.60
2022-11-06T10:05:41.280Z,6.80
2022-11-06T10:08:29.423Z,7.10
2022-11-06T10:36:06.253Z,7.20
2022-11-06T10:38:41.346Z,7.20
2022-11-06T10:41:19.116Z,6.80
2022-11-06T10:46:59.147Z,6.70
2022-11-06T10:55:57.455Z,7.60
2022-11-06T10:58:30.053Z,7.30
2022-11-06T11:01:02.067Z,7.60
2022-11-06T11:03:36.477Z,7.50
2022-11-06T11:06:05.023Z,7.40
2022-11-06T11:08:43.741Z,6.80
2022-11-06T11:14:31.855Z,6.90
2022-11-06T11:17:01.775Z,7.00
2022-11-06T11:19:44.424Z,6.80
2022-11-06T11:22:21.474Z,6.70
2022-11-06T11:25:06.013Z,7.00
2022-11-06T11:27:42.553Z,7.20
2022-11-06T11:30:23.733Z,7.10
2022-11-06T11:32:51.328Z,7.00
2022-11-06T11:35:21.852Z,7.20
2022-11-06T11:37:49.013Z,7.20
2022-11-06T11:40:37.834Z,7.40
2022-11-06T11:43:28.811Z,7.50
2022-11-06T11:46:28.605Z,7.60
2022-11-06T11:48:58.163Z,7.40
2022-11-06T11:51:47.580Z,7.60
2022-11-06T11:54:26.369Z,7.50
2022-11-06T11:57:07.496Z,7.90
2022-11-06T11:59:48.670Z,8.20
2022-11-06T12:02:30.004Z,8.40
2022-11-06T12:05:25.084Z,7.80
2022-11-06T12:07:55.291Z,7.80
2022-11-06T12:10:49.072Z,8.00
2022-11-06T12:13:24.184Z,8.10
2022-11-06T12:16:16.506Z,7.90
2022-11-06T12:18:53.496Z,8.00
2022-11-06T12:21:33.533Z,8.00
2022-11-06T12:24:07.701Z,8.10
2022-11-06T12:26:49.955Z,8.10
2022-11-06T12:29:22.044Z,8.00
2022-11-06T12:32:07.807Z,8.00
2022-11-06T12:34:57.888Z,8.20
2022-11-06T12:38:01.017Z,8.20
2022-11-06T12:40:50.863Z,8.40
2022-11-06T12:43:48.302Z,8.70
2022-11-06T12:46:54.692Z,8.80
2022-11-06T12:49:55.065Z,8.70
2022-11-06T12:52:52.248Z,8.60
2022-11-06T12:56:01.297Z,8.60
2022-11-06T12:59:10.584Z,8.50
2022-11-06T13:02:19.701Z,8.40
2022-11-06T13:05:02.006Z,8.40
2022-11-06T13:08:09.816Z,8.40
2022-11-06T13:14:39.975Z,8.40
2022-11-06T13:17:21.185Z,8.30
2022-11-06T13:20:07.432Z,8.50
2022-11-06T13:22:51.463Z,8.50
2022-11-06T13:25:28.014Z,8.50
2022-11-06T13:28:24.930Z,8.50
2022-11-06T13:30:53.425Z,8.40
2022-11-06T13:33:29.847Z,8.60
2022-11-06T13:35:58.888Z,8.70
2022-11-06T13:38:38.692Z,8.80
2022-11-06T13:41:20.679Z,9.60
2022-11-06T13:43:59.706Z,10.50
2022-11-06T13:46:58.076Z,11.00
2022-11-06T13:50:18.321Z,13.00
2022-11-06T13:53:03.372Z,14.80
2022-11-06T13:56:03.529Z,14.40
2022-11-06T13:58:56.776Z,12.10
2022-11-06T14:02:31.044Z,11.50
2022-11-06T14:05:42.783Z,11.10
2022-11-06T14:08:23.197Z,11.10
2022-11-06T14:10:58.276Z,12.90
2022-11-06T14:13:28.647Z,12.80
2022-11-06T14:16:37.501Z,12.80
2022-11-06T14:19:34.074Z,13.10
2022-11-06T14:26:03.836Z,11.10
2022-11-06T14:28:39.247Z,10.20
2022-11-06T14:31:16.343Z,9.80
2022-11-06T14:34:26.837Z,9.80
2022-11-06T14:36:53.906Z,9.50
2022-11-06T14:40:16.109Z,9.10
2022-11-06T14:42:46.624Z,9.00
2022-11-06T14:45:19.753Z,9.10
2022-11-06T14:47:56.593Z,8.80
2022-11-06T14:50:28.635Z,8.90
2022-11-06T14:53:02.406Z,8.90
2022-11-06T14:55:42.999Z,9.00
2022-11-06T14:58:36.294Z,8.90
2022-11-06T15:01:31.402Z,9.00
2022-11-06T15:04:20.664Z,9.10
2022-11-06T15:06:50.362Z,9.00
2022-11-06T15:09:46.760Z,9.00
2022-11-06T15:12:14.090Z,9.00
2022-11-06T15:15:03.845Z,9.10
2022-11-06T15:17:34.039Z,8.90
2022-11-06T15:20:07.447Z,8.60
2022-11-06T15:22:42.897Z,8.50
2022-11-06T15:25:24.388Z,8.40
2022-11-06T15:28:15.974Z,8.30
2022-11-06T15:31:13.061Z,8.20
2022-11-06T15:34:12.335Z,8.10
2022-11-06T15:36:42.027Z,8.00
2022-11-06T15:40:00.952Z,8.00
2022-11-06T15:42:34.646Z,8.00
2022-11-06T15:45:23.721Z,7.90
2022-11-06T15:48:03.129Z,7.90
2022-11-06T15:50:37.649Z,7.90
2022-11-06T15:53:30.626Z,7.90
2022-11-06T15:56:04.424Z,7.90
2022-11-06T15:58:36.882Z,7.90
2022-11-06T16:01:05.971Z,7.90
2022-11-06T16:03:51.058Z,7.90
2022-11-06T16:06:18.616Z,7.90
2022-11-06T16:08:45.976Z,7.90
2022-11-06T16:11:17.408Z,7.90
2022-11-06T16:13:46.693Z,7.90
2022-11-06T16:16:50.645Z,7.90
2022-11-06T16:19:30.258Z,7.90
2022-11-06T16:22:10.929Z,7.80
2022-11-06T16:24:52.481Z,7.80
2022-11-06T16:27:20.563Z,7.80
2022-11-06T16:29:50.363Z,7.70
2022-11-06T16:32:23.902Z,7.60
2022-11-06T16:34:51.891Z,7.50
2022-11-06T16:37:39.726Z,7.50
2022-11-06T16:40:27.043Z,7.50
2022-11-06T16:43:02.611Z,7.50
2022-11-06T16:45:31.316Z,7.50
2022-11-06T16:48:32.337Z,7.40
2022-11-06T16:51:08.097Z,7.40
2022-11-06T16:53:57.351Z,7.50
2022-11-06T16:56:30.646Z,7.50
2022-11-06T16:59:07.968Z,7.50
2022-11-06T17:01:40.848Z,7.50
2022-11-06T17:04:20.740Z,7.50
2022-11-06T17:06:48.347Z,7.60
2022-11-06T17:09:35.801Z,7.60
2022-11-06T17:12:04.366Z,7.80
2022-11-06T17:14:33.039Z,7.80
2022-11-06T17:17:01.513Z,7.90
2022-11-06T17:19:29.851Z,7.90
2022-11-06T17:21:58.014Z,7.90
2022-11-06T17:24:41.649Z,7.90
2022-11-06T17:27:09.080Z,7.90
2022-11-06T17:29:39.138Z,7.90
2022-11-06T17:32:06.307Z,8.00
2022-11-06T17:34:33.593Z,7.90
2022-11-06T17:37:00.738Z,7.90
2022-11-06T17:39:27.956Z,8.00
2022-11-06T17:41:55.271Z,7.90
2022-11-06T17:44:22.555Z,7.90
2022-11-06T17:46:49.927Z,8.00
2022-11-06T17:49:18.372Z,8.00
2022-11-06T17:52:00.531Z,8.00
2022-11-06T17:54:32.191Z,7.90
2022-11-06T17:57:02.029Z,7.90
2022-11-06T17:59:29.162Z,7.90
2022-11-06T18:01:57.792Z,7.90
2022-11-06T18:04:27.062Z,7.90
2022-11-06T18:06:54.807Z,7.90
2022-11-06T18:09:24.569Z,7.90
2022-11-06T18:11:52.965Z,7.90
2022-11-06T18:14:21.863Z,8.00
2022-11-06T18:16:49.750Z,8.00
2022-11-06T18:19:22.738Z,8.00
2022-11-06T18:21:50.301Z,8.00
2022-11-06T18:24:17.336Z,8.00
2022-11-06T18:26:44.705Z,8.00
2022-11-06T18:29:13.037Z,8.00
2022-11-06T18:31:40.685Z,8.00
2022-11-06T18:34:08.165Z,8.00
2022-11-06T18:36:36.805Z,8.00
2022-11-06T18:39:08.247Z,8.00
2022-11-06T18:41:35.740Z,8.00
2022-11-06T18:44:03.458Z,8.00
2022-11-06T18:46:30.525Z,8.10
2022-11-06T18:48:57.788Z,8.10
2022-11-06T18:51:34.948Z,8.10
2022-11-06T18:54:05.178Z,8.10
2022-11-06T18:56:32.499Z,8.20
2022-11-06T18:59:00.186Z,8.20
2022-11-06T19:01:28.736Z,8.10
2022-11-06T19:03:56.137Z,8.10
2022-11-06T19:06:23.263Z,8.10
2022-11-06T19:08:50.505Z,8.10
2022-11-06T19:11:18.657Z,8.10
2022-11-06T19:13:48.229Z,8.10
2022-11-06T19:16:19.418Z,8.20
2022-11-06T19:21:30.087Z,8.20
2022-11-06T19:24:04.030Z,8.10
2022-11-06T19:26:32.750Z,8.10
2022-11-06T19:29:00.789Z,8.10
2022-11-06T19:31:31.951Z,8.10
2022-11-06T19:34:00.322Z,8.10
2022-11-06T19:36:28.148Z,8.00
2022-11-06T19:38:57.374Z,8.00
2022-11-06T19:41:26.060Z,8.10
2022-11-06T19:43:53.331Z,8.10
2022-11-06T19:46:24.979Z,8.10
2022-11-06T19:48:54.615Z,8.10
2022-11-06T19:51:21.691Z,8.10
2022-11-06T19:53:53.292Z,8.10
2022-11-06T19:56:21.519Z,8.10
2022-11-06T19:58:50.226Z,8.10
2022-11-06T20:01:18.988Z,8.00
2022-11-06T20:03:46.186Z,8.00
2022-11-06T20:06:13.858Z,8.00
2022-11-06T20:08:48.067Z,8.10
2022-11-06T20:11:15.487Z,8.00
2022-11-06T20:13:43.696Z,8.00
2022-11-06T20:16:16.971Z,8.00
2022-11-06T20:18:49.935Z,8.00
2022-11-06T20:21:17.040Z,8.10
2022-11-06T20:23:44.041Z,8.00
2022-11-06T20:26:11.461Z,8.00
2022-11-06T20:28:38.575Z,8.00
2022-11-06T20:31:10.979Z,8.10
2022-11-06T20:33:38.678Z,8.00
2022-11-06T20:36:10.575Z,8.10
2022-11-06T20:38:37.628Z,8.00
2022-11-06T20:41:04.958Z,8.00
2022-11-06T20:43:32.927Z,8.10
2022-11-06T20:46:01.333Z,8.10
2022-11-06T20:48:28.348Z,8.10
2022-11-06T20:51:11.052Z,8.10
2022-11-06T20:53:39.396Z,8.10
2022-11-06T20:56:09.122Z,8.10
2022-11-06T20:58:36.344Z,8.10
2022-11-06T21:01:19.779Z,8.10
2022-11-06T21:03:49.544Z,8.20
2022-11-06T21:06:18.063Z,8.20
2022-11-06T21:08:46.010Z,8.40
2022-11-06T21:11:17.264Z,8.40
2022-11-06T21:13:46.611Z,8.50
2022-11-06T21:16:17.022Z,8.50
2022-11-06T21:18:44.391Z,8.50
2022-11-06T21:21:14.468Z,8.40
2022-11-06T21:23:41.822Z,8.40
2022-11-06T21:26:12.127Z,8.40
2022-11-06T21:28:41.398Z,8.40
2022-11-06T21:31:10.322Z,8.40
2022-11-06T21:33:40.787Z,8.40
2022-11-06T21:36:10.872Z,8.40
2022-11-06T21:38:38.437Z,8.40
2022-11-06T21:41:17.066Z,8.50
2022-11-06T21:43:44.268Z,8.50
2022-11-06T21:46:12.754Z,8.50
2022-11-06T21:48:46.418Z,8.50
2022-11-06T21:51:17.470Z,8.50
2022-11-06T21:54:03.346Z,8.50
2022-11-06T21:56:30.487Z,8.50
2022-11-06T21:58:59.084Z,8.50
2022-11-06T22:01:27.190Z,8.60
2022-11-06T22:03:54.697Z,8.60
2022-11-06T22:06:24.766Z,8.60
2022-11-06T22:08:53.590Z,8.60
2022-11-06T22:11:36.807Z,8.70
2022-11-06T22:14:07.461Z,8.70
2022-11-06T22:16:37.060Z,8.80
2022-11-06T22:19:06.980Z,8.80
2022-11-06T22:21:35.562Z,8.80
2022-11-06T22:24:02.803Z,8.70
2022-11-06T22:26:32.983Z,8.80
2022-11-06T22:29:02.145Z,8.80
2022-11-06T22:31:29.779Z,8.70
2022-11-06T22:33:57.013Z,8.60
2022-11-06T22:36:25.067Z,8.50
2022-11-06T22:38:52.950Z,8.50
2022-11-06T22:41:23.821Z,8.40
2022-11-06T22:43:51.559Z,8.40
2022-11-06T22:46:22.190Z,8.40
2022-11-06T22:48:50.664Z,8.30
2022-11-06T22:51:26.416Z,8.30
2022-11-06T22:53:54.004Z,8.20
2022-11-06T22:56:23.186Z,8.20
2022-11-06T22:58:55.127Z,8.10
2022-11-06T23:01:24.091Z,8.10
2022-11-06T23:03:51.325Z,8.10
2022-11-06T23:06:18.354Z,8.10
2022-11-06T23:08:47.180Z,8.10
2022-11-06T23:11:15.767Z,8.10
2022-11-06T23:13:44.031Z,8.10
2022-11-06T23:16:40.662Z,8.00
2022-11-06T23:19:08.168Z,8.00
2022-11-06T23:21:35.547Z,7.90
2022-11-06T23:24:03.793Z,7.90
2022-11-06T23:26:30.837Z,7.90
2022-11-06T23:28:58.111Z,7.90
2022-11-06T23:31:25.136Z,7.90
2022-11-06T23:33:52.223Z,8.00
2022-11-06T23:36:19.239Z,8.00
2022-11-06T23:38:46.618Z,8.00
2022-11-06T23:41:35.718Z,8.10
2022-11-06T23:44:03.233Z,8.10
2022-11-06T23:46:32.000Z,8.10
2022-11-06T23:48:59.803Z,8.00
2022-11-06T23:51:27.784Z,8.00
2022-11-06T23:53:55.013Z,8.10
2022-11-06T23:56:22.208Z,8.10
2022-11-06T23:58:49.197Z,8.10
